AirNav   Everest Fuels
 
 1466 users online  

9FL4 Pasco County Mosquito Heliport
New Port Richey, Florida, USA

GOING TO NEW PORT RICHEY?


FAA INFORMATION EFFECTIVE 07 NOVEMBER 2019

Location

FAA Identifier: 9FL4
Lat/Long: 28-11-36.2400N 082-37-13.4100W
28-11.604000N 082-37.223500W
28.1934000,-82.6203917
(estimated)
Elevation: 40 ft. / 12 m (estimated)
Variation: 03W (1995)
From city: 5 miles NW of NEW PORT RICHEY, FL
Time zone: UTC -5 (UTC -4 during Daylight Saving Time)
Zip code: 34655

Heliport Operations

Heliport use: Private use. Permission required prior to landing
Activation date: 10/1996
Control tower: no
ARTCC: MIAMI CENTER
FSS: SAINT PETERSBURG FLIGHT SERVICE STATION
Attendance: MON-FRI 0700-1530
Wind indicator: lighted
Segmented circle: no

Heliport Communications

WX ASOS at TPA (14 nm S): PHONE 813-873-7228
WX AWOS-3P at CLW (15 nm SW): 119.225 (727-449-2184)
WX ASOS at PIE (17 nm S): PHONE 727-531-3456
WX AWOS-3 at VDF (18 nm SE): 121.125 (813-630-0924)
WX ASOS at BKV (19 nm NE): 134.725 (352-799-5881)
WX AWOS-3 at TPF (19 nm SE): 118.925 (813-251-6824)

Nearby radio navigation aids

VOR radial/distance  VOR name  Freq  Var
PIEr016/17.5ST PETERSBURG VORTAC116.4005W
LALr290/34.4LAKELAND VORTAC116.0001E

 
NDB name  Hdg/Dist  Freq  Var  ID
COSME327/8.236805WTP - .--.
CAPOK025/12.736005WPI .--. ..

Heliport Services

Fuel available: A

Runway Information

Helipad H1

Dimensions: 60 x 60 ft. / 18 x 18 m
Surface: concrete, in good condition
Runway edge lights: non-standard
HELIPAD H1 NSTD FLOODLIGHTS WEST SIDE OF PAD.
Latitude: 28-11.604000N
Longitude: 082-37.223500W
Elevation: 40.0 ft.
Traffic pattern: leftleft

Heliport Ownership and Management from official FAA records

Ownership: Privately-owned
Owner: PASCO COUNTY MOSQUITO CONTROL
2308 MARATHON RD
ODESSA, FL 33556
Phone 727-376-4568
Manager: WAYNE DANIELS
2308 MARATHON RD
ODESSA, FL 33556
Phone 727-376-4568

Heliport Operational Statistics

Aircraft based on the field: 4
Single engine airplanes: 2
Helicopters: 2
    

Additional Remarks

ADDITIONAL CONTACT - WAYNE DANIELS - 727-376-4565 X 222 - WDANIELS@PASCOMOSQUITO.ORG
FOR CD CTC TAMPA APCH AT 813-878-2528

Instrument Procedures

There are no published instrument procedures at 9FL4.

Some nearby airports with instrument procedures:

KTPA - Tampa International Airport (14 nm S)
KCLW - Clearwater Air Park (15 nm SW)
KPIE - St Pete-Clearwater International Airport (17 nm S)
KVDF - Tampa Executive Airport (18 nm SE)
KBKV - Brooksville-Tampa Bay Regional Airport (19 nm NE)
KTPF - Peter O Knight Airport (19 nm SE)
 
Loc | Ops | Rwys | IFR | FBO | Links
Com | Nav | Svcs | Stats | Notes


 
Area around 9FL4 (Pasco County Mosquito Heliport)
 
Road maps at: MapQuest Bing Google
 
Aerial photo
No photo
 
Sectional chart

 
Airport distance calculator
Flying to Pasco County Mosquito Heliport? Find the distance to fly.

From to 9FL4

Sunrise and sunset
Times for 12-Nov-2019
 Local
(UTC-5)
 Zulu
(UTC)
Morning civil twilight06:2611:26
Sunrise06:5111:51
Sunset17:3822:38
Evening civil twilight18:0323:03

Current date and time
Zulu (UTC)  12-Nov-2019 15:46:51
Local (UTC-5)  12-Nov-2019 10:46:51
 
METAR
KTPA 
14nm S 
121453Z 20006KT 10SM FEW200 25/18 A3000 RMK AO2 SLP156 T02500183 51008
KCLW 
15nm SW 
121535Z AUTO 00000KT 10SM CLR 26/19 A2998 RMK AO2
KPIE 
17nm S 
121453Z 17005KT 10SM CLR 27/19 A2999 RMK AO2 SLP154 T02670189 51008
KVDF 
18nm SE 
121535Z AUTO 22004KT 10SM CLR 26/19 A2999 RMK AO2
KBKV 
19nm NE 
121453Z 20005KT 10SM CLR 24/19 A3000 RMK AO2 SLP157 T02440189 51008
KTPF 
19nm SE 
121535Z AUTO 20004KT 10SM OVC110 25/20 A2999 RMK AO2
KMCF 
21nm S 
121456Z AUTO 18004KT 10SM CLR 24/19 A2999 RMK AO2 SLP159 60000 T02380189 52011 FZRANO $
KZPH 
25nm E 
121535Z AUTO 21007KT 10SM CLR 26/18 A3000 RMK A02 T02610180
KSPG 
26nm S 
121453Z 16005KT 10SM CLR 24/19 A2998 RMK AO2 SLP150 T02390189 51011
KPCM 
27nm SE 
121535Z AUTO 21006KT 10SM CLR 27/19 A3001 RMK AO2
TAF
KTPA 
14nm S 
121121Z 1212/1318 VRB03KT P6SM SCT040 SCT200 FM121800 28008KT P6SM VCSH FEW035 SCT200 FM122300 32008KT P6SM SCT025 BKN100 FM130000 36010G15KT P6SM OVC015 FM131400 03011KT P6SM BKN025
KPIE 
17nm S 
121121Z 1212/1312 VRB03KT P6SM SCT035 SCT200 TEMPO 1212/1213 2SM BR FEW010 FM121600 22004KT P6SM FEW200 FM121800 26006KT P6SM VCSH FEW040 SCT200 FM122200 31009KT P6SM SCT030 BKN100 FM130000 36012G18KT P6SM OVC015
NOTAMs
Click for the latest NOTAMs
NOTAMs are issued by the DoD/FAA and will open in a separate window not controlled by AirNav.

 

 
 

Would you like to see your business listed on this page?

 If your business provides an interesting product or service to pilots, flight crews, aircraft, or users of the Pasco County Mosquito Heliport, you should consider listing it here.  To start the listing process, click on the button below
 
Add a business
 

Other Pages about Pasco County Mosquito Heliport

Update a link
 
Copyright © AirNav, LLC. All rights reserved. Privacy Policy  Contact